TFM - Tactical Decision Aid
ID: Runway Winds: CIG/VIS Threshold:

KHKS - Jackson/Hawkins Fld, MS, US

Updated at: 1113 UTC 26 Sep 2018
Latest TAF at: 1056 UTC 26 Sep 2018

TAF Board

Time1100Z 26/12Z 26/13Z 26/14Z 26/15Z 26/16Z 26/17Z 26/18Z 26/19Z 26/20Z 26/21Z 26/22Z 26/23Z 27/00Z>>
Type OBS PRVL PRVL PRVL PRVL PRVL PRVL PRVL PRVL PRVL PRVL PRVL PRVL PRVL
VIS 8 >6 >6 >6 >6 4 4 4 4 >6 >6 >6 >6 >6
CIG 27 30 30 40 40 25 25 25 25 15 15 15 15 25
Cover OVC OVC OVC OVC OVC OVC OVC OVC OVC OVC OVC OVC OVC BKN
FltCat MVFR MVFR MVFR VFR VFR MVFR MVFR MVFR MVFR MVFR MVFR MVFR MVFR MVFR
WX -- -- -- VCSH VCSH RA BR VCTS RA BR VCTS RA BR VCTS RA BR VCTS -RA -RA -RA -RA --
WDir 180 170 170 180 180 240 240 240 240 340 340 340 340 60
WSpd 3 3 3 4 4 5 5 5 5 6 6 6 6 3
WGst -- -- -- -- -- -- -- -- -- -- -- -- -- --

TDA Impact Legend

  None Marginal Slight Moderate High
Visibility (sm) >5 3≤X≤5 2≤X<3 0.5≤X<2 <0.5
Ceiling (100 ft) >30 10≤X≤30 6≤X<10 2≤X<6 <2
Wind Speed (kt) <15 15≤X<25 25≤X<30 ≥30
Wind Gust (kt) <15 15≤X<25 25≤X<35 ≥35
Weather No Wx Reported VCTS -TS,-FZRA TS,FZRA +TS,+FZRA
TAF
KHKS 261056Z 2611/2706 17003KT P6SM SCT005 OVC030
  FM261400 18004KT P6SM VCSH BKN040 OVC100
  FM261600 24005KT 4SM RA BR VCTS BKN025CB OVC050
  FM262000 34006KT P6SM -RA BKN015 OVC025
  FM270000 06003KT P6SM BKN025 BKN250


METAR
KHKS 261100Z AUTO 18003KT 8SM SCT005 BKN027 OVC040 24/24 A3004 RMK AO2 T02390239
KHKS 261053Z AUTO 19003KT 8SM SCT005 OVC034 24/24 A3004 RMK AO2 SLP163 T02390239
KHKS 261051Z AUTO 19003KT 8SM BKN005 OVC034 24/24 A3004 RMK AO2
KHKS 261028Z AUTO 17003KT 8SM SCT005 BKN055 OVC080 24/24 A3004 RMK AO2 T02390239
KHKS 260953Z AUTO 17003KT 10SM OVC090 24/24 A3002 RMK AO2 SLP158 T02390239
KHKS 260926Z AUTO 18003KT 8SM FEW004 OVC095 24/24 A3002 RMK AO2 T02390239
KHKS 260906Z AUTO 17005KT 8SM BKN004 OVC095 24/24 A3002 RMK AO2 T02390239
KHKS 260853Z AUTO 16004KT 8SM BKN005 BKN095 OVC120 24/24 A3002 RMK AO2 SLP156 T02390239 58012
KHKS 260837Z AUTO 17004KT 8SM SCT005 SCT095 OVC120 24/24 A3002 RMK AO2 T02390239
KHKS 260753Z AUTO 00000KT 9SM OVC100 24/24 A3003 RMK AO2 SLP159 T02390239